sensor_id;sensor_type;location;lat;lon;timestamp;pressure;altitude;pressure_sealevel;temperature;humidity
49122;BME280;35529;44.342;25.944;2023-10-13T00:00:40;100992.78;;;13.87;100.00
49122;BME280;35529;44.342;25.944;2023-10-13T00:03:07;100990.53;;;13.84;100.00
49122;BME280;35529;44.342;25.944;2023-10-13T00:05:40;100985.56;;;13.81;100.00
49122;BME280;35529;44.342;25.944;2023-10-13T00:08:08;100990.31;;;13.79;100.00
49122;BME280;35529;44.342;25.944;2023-10-13T00:10:34;100986.81;;;13.78;100.00
49122;BME280;35529;44.342;25.944;2023-10-13T00:13:11;100985.78;;;13.72;100.00
49122;BME280;35529;44.342;25.944;2023-10-13T00:15:42;100987.44;;;13.73;100.00
49122;BME280;35529;44.342;25.944;2023-10-13T00:18:27;100981.88;;;13.75;100.00
49122;BME280;35529;44.342;25.944;2023-10-13T00:20:53;100975.75;;;13.74;100.00
49122;BME280;35529;44.342;25.944;2023-10-13T00:23:22;100987.00;;;13.77;100.00
49122;BME280;35529;44.342;25.944;2023-10-13T00:25:49;100981.47;;;13.78;100.00
49122;BME280;35529;44.342;25.944;2023-10-13T00:28:16;100987.84;;;13.77;100.00
49122;BME280;35529;44.342;25.944;2023-10-13T00:30:50;100988.25;;;13.74;100.00
49122;BME280;35529;44.342;25.944;2023-10-13T00:33:18;100996.03;;;13.69;100.00
49122;BME280;35529;44.342;25.944;2023-10-13T00:35:49;100997.88;;;13.62;100.00
49122;BME280;35529;44.342;25.944;2023-10-13T00:38:17;100996.22;;;13.47;100.00
49122;BME280;35529;44.342;25.944;2023-10-13T00:40:44;100993.16;;;13.37;100.00
49122;BME280;35529;44.342;25.944;2023-10-13T00:43:21;100995.56;;;13.32;100.00
49122;BME280;35529;44.342;25.944;2023-10-13T00:45:49;100993.28;;;13.29;100.00
49122;BME280;35529;44.342;25.944;2023-10-13T00:48:27;100984.69;;;13.33;100.00
49122;BME280;35529;44.342;25.944;2023-10-13T00:51:01;100989.00;;;13.34;100.00
49122;BME280;35529;44.342;25.944;2023-10-13T00:53:32;100983.03;;;13.32;100.00
49122;BME280;35529;44.342;25.944;2023-10-13T00:56:06;100989.38;;;13.31;100.00
49122;BME280;35529;44.342;25.944;2023-10-13T00:59:04;100970.13;;;13.29;100.00
49122;BME280;35529;44.342;25.944;2023-10-13T01:01:30;100973.59;;;13.30;100.00
49122;BME280;35529;44.342;25.944;2023-10-13T01:03:58;100970.53;;;13.26;100.00
49122;BME280;35529;44.342;25.944;2023-10-13T01:06:25;100975.03;;;13.25;100.00
49122;BME280;35529;44.342;25.944;2023-10-13T01:11:25;100969.91;;;13.24;100.00
49122;BME280;35529;44.342;25.944;2023-10-13T01:13:55;100959.63;;;13.21;100.00
49122;BME280;35529;44.342;25.944;2023-10-13T01:16:22;100967.63;;;13.21;100.00
49122;BME280;35529;44.342;25.944;2023-10-13T01:18:53;100967.22;;;13.17;100.00
49122;BME280;35529;44.342;25.944;2023-10-13T01:21:19;100969.44;;;13.14;100.00
49122;BME280;35529;44.342;25.944;2023-10-13T01:23:53;100967.63;;;13.14;100.00
49122;BME280;35529;44.342;25.944;2023-10-13T01:26:19;100970.28;;;13.14;100.00
49122;BME280;35529;44.342;25.944;2023-10-13T01:28:56;100975.41;;;13.16;100.00
49122;BME280;35529;44.342;25.944;2023-10-13T01:31:22;100967.41;;;13.16;100.00
49122;BME280;35529;44.342;25.944;2023-10-13T01:33:56;100968.44;;;13.15;100.00
49122;BME280;35529;44.342;25.944;2023-10-13T01:36:28;100973.56;;;13.16;100.00
49122;BME280;35529;44.342;25.944;2023-10-13T01:39:01;100973.78;;;13.15;100.00
49122;BME280;35529;44.342;25.944;2023-10-13T01:41:27;100971.31;;;13.13;100.00
49122;BME280;35529;44.342;25.944;2023-10-13T01:43:55;100964.31;;;13.12;100.00
49122;BME280;35529;44.342;25.944;2023-10-13T01:46:23;100971.50;;;13.12;100.00
49122;BME280;35529;44.342;25.944;2023-10-13T01:48:49;100975.19;;;13.11;100.00
49122;BME280;35529;44.342;25.944;2023-10-13T01:51:15;100966.56;;;13.08;100.00
49122;BME280;35529;44.342;25.944;2023-10-13T01:53:41;100966.56;;;13.08;100.00
49122;BME280;35529;44.342;25.944;2023-10-13T01:56:07;100967.78;;;13.06;100.00
49122;BME280;35529;44.342;25.944;2023-10-13T01:58:40;100964.31;;;13.05;100.00
49122;BME280;35529;44.342;25.944;2023-10-13T02:01:12;100964.72;;;13.02;100.00
49122;BME280;35529;44.342;25.944;2023-10-13T02:03:39;100966.75;;;13.00;100.00
49122;BME280;35529;44.342;25.944;2023-10-13T02:06:12;100966.34;;;12.97;100.00
49122;BME280;35529;44.342;25.944;2023-10-13T02:08:43;100976.78;;;12.91;100.00
49122;BME280;35529;44.342;25.944;2023-10-13T02:11:10;100975.72;;;12.86;100.00
49122;BME280;35529;44.342;25.944;2023-10-13T02:13:36;100974.28;;;12.83;100.00
49122;BME280;35529;44.342;25.944;2023-10-13T02:16:14;100977.13;;;12.82;100.00
49122;BME280;35529;44.342;25.944;2023-10-13T02:18:44;100986.19;;;12.81;100.00
49122;BME280;35529;44.342;25.944;2023-10-13T02:21:10;100974.88;;;12.79;100.00
49122;BME280;35529;44.342;25.944;2023-10-13T02:23:40;100980.22;;;12.79;100.00
49122;BME280;35529;44.342;25.944;2023-10-13T02:26:25;100984.28;;;12.74;100.00
49122;BME280;35529;44.342;25.944;2023-10-13T02:28:58;100984.50;;;12.73;100.00
49122;BME280;35529;44.342;25.944;2023-10-13T02:31:27;100990.03;;;12.71;100.00
49122;BME280;35529;44.342;25.944;2023-10-13T02:33:53;100986.31;;;12.72;100.00
49122;BME280;35529;44.342;25.944;2023-10-13T02:36:20;100979.97;;;12.73;100.00
49122;BME280;35529;44.342;25.944;2023-10-13T02:39:06;100981.00;;;12.72;100.00
49122;BME280;35529;44.342;25.944;2023-10-13T02:41:35;100978.13;;;12.67;100.00
49122;BME280;35529;44.342;25.944;2023-10-13T02:44:04;100977.88;;;12.62;100.00
49122;BME280;35529;44.342;25.944;2023-10-13T02:46:32;100976.63;;;12.58;100.00
49122;BME280;35529;44.342;25.944;2023-10-13T02:49:02;100971.69;;;12.55;100.00
49122;BME280;35529;44.342;25.944;2023-10-13T02:51:37;100967.41;;;12.54;100.00
49122;BME280;35529;44.342;25.944;2023-10-13T02:54:04;100978.66;;;12.56;100.00
49122;BME280;35529;44.342;25.944;2023-10-13T02:56:36;100973.78;;;12.60;100.00
49122;BME280;35529;44.342;25.944;2023-10-13T02:59:02;100976.22;;;12.61;100.00
49122;BME280;35529;44.342;25.944;2023-10-13T03:01:32;100981.56;;;12.61;100.00
49122;BME280;35529;44.342;25.944;2023-10-13T03:04:00;100968.25;;;12.61;100.00
49122;BME280;35529;44.342;25.944;2023-10-13T03:06:27;100967.59;;;12.59;100.00
49122;BME280;35529;44.342;25.944;2023-10-13T03:09:00;100975.00;;;12.57;100.00
49122;BME280;35529;44.342;25.944;2023-10-13T03:11:39;100973.75;;;12.53;100.00
49122;BME280;35529;44.342;25.944;2023-10-13T03:14:20;100973.09;;;12.51;100.00
49122;BME280;35529;44.342;25.944;2023-10-13T03:16:51;100969.84;;;12.49;100.00
49122;BME280;35529;44.342;25.944;2023-10-13T03:19:17;100980.25;;;12.44;100.00
49122;BME280;35529;44.342;25.944;2023-10-13T03:21:47;100974.69;;;12.38;100.00
49122;BME280;35529;44.342;25.944;2023-10-13T03:24:21;100970.75;;;12.34;100.00
49122;BME280;35529;44.342;25.944;2023-10-13T03:27:00;100967.47;;;12.32;100.00
49122;BME280;35529;44.342;25.944;2023-10-13T03:29:35;100967.88;;;12.29;100.00
49122;BME280;35529;44.342;25.944;2023-10-13T03:32:02;100968.06;;;12.28;100.00
49122;BME280;35529;44.342;25.944;2023-10-13T03:34:38;100954.94;;;12.26;100.00
49122;BME280;35529;44.342;25.944;2023-10-13T03:37:07;100955.16;;;12.24;100.00
49122;BME280;35529;44.342;25.944;2023-10-13T03:39:44;100961.03;;;12.20;100.00
49122;BME280;35529;44.342;25.944;2023-10-13T03:42:11;100968.78;;;12.15;100.00
49122;BME280;35529;44.342;25.944;2023-10-13T03:44:45;100967.72;;;12.09;100.00
49122;BME280;35529;44.342;25.944;2023-10-13T03:47:12;100960.97;;;12.06;100.00
49122;BME280;35529;44.342;25.944;2023-10-13T03:49:44;100972.63;;;12.05;100.00
49122;BME280;35529;44.342;25.944;2023-10-13T03:52:11;100961.56;;;12.02;100.00
49122;BME280;35529;44.342;25.944;2023-10-13T03:54:39;100961.75;;;12.00;100.00
49122;BME280;35529;44.342;25.944;2023-10-13T03:57:07;100959.47;;;11.97;100.00
49122;BME280;35529;44.342;25.944;2023-10-13T03:59:37;100951.28;;;11.99;100.00
49122;BME280;35529;44.342;25.944;2023-10-13T04:02:04;100950.66;;;11.97;100.00
49122;BME280;35529;44.342;25.944;2023-10-13T04:04:37;100962.75;;;11.99;100.00
49122;BME280;35529;44.342;25.944;2023-10-13T04:07:24;100962.38;;;12.02;100.00
49122;BME280;35529;44.342;25.944;2023-10-13T04:10:06;100971.19;;;12.03;100.00
49122;BME280;35529;44.342;25.944;2023-10-13T04:12:55;100973.66;;;12.04;100.00
49122;BME280;35529;44.342;25.944;2023-10-13T04:15:42;100956.28;;;12.09;100.00
49122;BME280;35529;44.342;25.944;2023-10-13T04:18:28;100955.47;;;12.15;100.00
49122;BME280;35529;44.342;25.944;2023-10-13T04:21:12;100956.56;;;12.20;100.00
49122;BME280;35529;44.342;25.944;2023-10-13T04:24:08;100963.72;;;12.20;100.00
49122;BME280;35529;44.342;25.944;2023-10-13T04:26:55;100971.50;;;12.21;100.00
49122;BME280;35529;44.342;25.944;2023-10-13T04:29:39;100980.31;;;12.22;100.00
49122;BME280;35529;44.342;25.944;2023-10-13T04:32:15;100978.91;;;12.26;100.00
49122;BME280;35529;44.342;25.944;2023-10-13T04:34:47;100996.13;;;12.30;100.00
49122;BME280;35529;44.342;25.944;2023-10-13T04:37:17;100980.78;;;12.32;100.00
49122;BME280;35529;44.342;25.944;2023-10-13T04:39:59;100981.03;;;12.37;100.00
49122;BME280;35529;44.342;25.944;2023-10-13T04:42:35;100980.44;;;12.42;100.00
49122;BME280;35529;44.342;25.944;2023-10-13T04:45:06;100995.44;;;12.50;100.00
49122;BME280;35529;44.342;25.944;2023-10-13T04:47:55;100987.28;;;12.58;100.00
49122;BME280;35529;44.342;25.944;2023-10-13T04:50:40;100979.97;;;12.73;100.00
49122;BME280;35529;44.342;25.944;2023-10-13T04:53:16;100990.31;;;12.90;100.00
49122;BME280;35529;44.342;25.944;2023-10-13T04:56:17;100984.81;;;13.05;100.00
49122;BME280;35529;44.342;25.944;2023-10-13T04:59:02;100985.44;;;13.14;100.00
49122;BME280;35529;44.342;25.944;2023-10-13T05:01:46;100986.31;;;13.21;100.00
49122;BME280;35529;44.342;25.944;2023-10-13T05:04:35;100993.69;;;13.25;100.00
49122;BME280;35529;44.342;25.944;2023-10-13T05:07:20;100999.25;;;13.31;100.00
49122;BME280;35529;44.342;25.944;2023-10-13T05:10:05;101002.34;;;13.34;100.00
49122;BME280;35529;44.342;25.944;2023-10-13T05:12:50;100994.19;;;13.43;100.00
49122;BME280;35529;44.342;25.944;2023-10-13T05:15:42;100999.53;;;13.56;100.00
49122;BME280;35529;44.342;25.944;2023-10-13T05:18:27;101011.44;;;13.67;100.00
49122;BME280;35529;44.342;25.944;2023-10-13T05:21:11;101015.13;;;13.72;100.00
49122;BME280;35529;44.342;25.944;2023-10-13T05:23:56;101025.63;;;13.81;100.00
49122;BME280;35529;44.342;25.944;2023-10-13T05:26:41;101028.06;;;13.82;100.00
49122;BME280;35529;44.342;25.944;2023-10-13T05:29:25;101030.75;;;13.89;100.00
49122;BME280;35529;44.342;25.944;2023-10-13T05:32:10;101022.34;;;13.92;100.00
49122;BME280;35529;44.342;25.944;2023-10-13T05:34:55;101030.34;;;14.05;100.00
49122;BME280;35529;44.342;25.944;2023-10-13T05:37:40;101025.59;;;14.21;100.00
49122;BME280;35529;44.342;25.944;2023-10-13T05:40:24;101020.91;;;14.23;100.00
49122;BME280;35529;44.342;25.944;2023-10-13T05:43:09;101029.50;;;14.25;100.00
49122;BME280;35529;44.342;25.944;2023-10-13T05:45:55;101027.47;;;14.27;100.00
49122;BME280;35529;44.342;25.944;2023-10-13T05:48:40;101030.34;;;14.32;100.00
49122;BME280;35529;44.342;25.944;2023-10-13T05:51:25;101036.91;;;14.43;100.00
49122;BME280;35529;44.342;25.944;2023-10-13T05:54:10;101032.78;;;14.47;100.00
49122;BME280;35529;44.342;25.944;2023-10-13T05:56:46;101035.00;;;14.57;100.00
49122;BME280;35529;44.342;25.944;2023-10-13T05:59:32;101029.47;;;14.65;100.00
49122;BME280;35529;44.342;25.944;2023-10-13T06:02:17;101032.53;;;14.75;100.00
49122;BME280;35529;44.342;25.944;2023-10-13T06:05:02;101032.28;;;14.84;100.00
49122;BME280;35529;44.342;25.944;2023-10-13T06:07:47;101041.72;;;14.93;100.00
49122;BME280;35529;44.342;25.944;2023-10-13T06:10:32;101052.19;;;15.01;100.00
49122;BME280;35529;44.342;25.944;2023-10-13T06:13:17;101058.13;;;15.10;100.00
49122;BME280;35529;44.342;25.944;2023-10-13T06:16:09;101062.22;;;15.13;100.00
49122;BME280;35529;44.342;25.944;2023-10-13T06:18:53;101073.28;;;15.23;100.00
49122;BME280;35529;44.342;25.944;2023-10-13T06:21:38;101069.72;;;15.36;100.00
49122;BME280;35529;44.342;25.944;2023-10-13T06:24:23;101083.22;;;15.54;100.00
49122;BME280;35529;44.342;25.944;2023-10-13T06:27:07;101089.31;;;15.68;100.00
49122;BME280;35529;44.342;25.944;2023-10-13T06:29:52;101090.31;;;15.81;100.00
49122;BME280;35529;44.342;25.944;2023-10-13T06:32:21;101093.03;;;15.99;100.00
49122;BME280;35529;44.342;25.944;2023-10-13T06:34:52;101082.84;;;16.15;100.00
49122;BME280;35529;44.342;25.944;2023-10-13T06:37:26;101087.06;;;16.29;100.00
49122;BME280;35529;44.342;25.944;2023-10-13T06:39:57;101089.63;;;16.42;100.00
49122;BME280;35529;44.342;25.944;2023-10-13T06:42:25;101082.41;;;16.62;100.00
49122;BME280;35529;44.342;25.944;2023-10-13T06:44:54;101090.25;;;16.82;100.00
49122;BME280;35529;44.342;25.944;2023-10-13T06:47:23;101088.88;;;16.98;100.00
49122;BME280;35529;44.342;25.944;2023-10-13T06:49:50;101083.72;;;17.15;100.00
49122;BME280;35529;44.342;25.944;2023-10-13T06:52:22;101077.50;;;17.33;100.00
49122;BME280;35529;44.342;25.944;2023-10-13T06:54:54;101081.28;;;17.43;100.00
49122;BME280;35529;44.342;25.944;2023-10-13T06:57:21;101081.09;;;17.57;100.00
49122;BME280;35529;44.342;25.944;2023-10-13T06:59:47;101090.00;;;17.69;100.00
49122;BME280;35529;44.342;25.944;2023-10-13T07:02:14;101095.88;;;17.78;100.00
49122;BME280;35529;44.342;25.944;2023-10-13T07:04:49;101101.88;;;17.92;100.00
49122;BME280;35529;44.342;25.944;2023-10-13T07:07:18;101099.66;;;17.89;100.00
49122;BME280;35529;44.342;25.944;2023-10-13T07:09:44;101104.13;;;17.95;100.00
49122;BME280;35529;44.342;25.944;2023-10-13T07:12:30;101116.28;;;18.09;100.00
49122;BME280;35529;44.342;25.944;2023-10-13T07:14:59;101109.44;;;18.25;100.00
49122;BME280;35529;44.342;25.944;2023-10-13T07:17:51;101101.84;;;18.34;100.00
49122;BME280;35529;44.342;25.944;2023-10-13T07:20:25;101104.66;;;18.51;100.00
49122;BME280;35529;44.342;25.944;2023-10-13T07:22:54;101100.78;;;18.71;100.00
49122;BME280;35529;44.342;25.944;2023-10-13T07:25:29;101093.19;;;18.91;100.00
49122;BME280;35529;44.342;25.944;2023-10-13T07:27:59;101097.59;;;19.09;100.00
49122;BME280;35529;44.342;25.944;2023-10-13T07:30:26;101106.00;;;19.25;100.00
49122;BME280;35529;44.342;25.944;2023-10-13T07:32:53;101111.78;;;19.34;100.00
49122;BME280;35529;44.342;25.944;2023-10-13T07:35:19;101111.75;;;19.46;100.00
49122;BME280;35529;44.342;25.944;2023-10-13T07:37:46;101119.19;;;19.55;100.00
49122;BME280;35529;44.342;25.944;2023-10-13T07:40:18;101112.75;;;19.56;100.00
49122;BME280;35529;44.342;25.944;2023-10-13T07:42:53;101114.16;;;19.59;100.00
49122;BME280;35529;44.342;25.944;2023-10-13T07:45:29;101113.28;;;19.70;100.00
49122;BME280;35529;44.342;25.944;2023-10-13T07:48:05;101112.91;;;19.79;100.00
49122;BME280;35529;44.342;25.944;2023-10-13T07:51:01;101103.88;;;19.85;100.00
49122;BME280;35529;44.342;25.944;2023-10-13T07:53:32;101102.75;;;19.98;100.00
49122;BME280;35529;44.342;25.944;2023-10-13T07:56:01;101101.19;;;20.02;100.00
49122;BME280;35529;44.342;25.944;2023-10-13T07:58:43;101101.59;;;20.10;99.76
49122;BME280;35529;44.342;25.944;2023-10-13T08:01:19;101097.03;;;20.11;98.94
49122;BME280;35529;44.342;25.944;2023-10-13T08:03:45;101095.56;;;20.20;98.29
49122;BME280;35529;44.342;25.944;2023-10-13T08:06:12;101100.38;;;20.35;97.64
49122;BME280;35529;44.342;25.944;2023-10-13T08:08:39;101098.47;;;20.53;97.25
49122;BME280;35529;44.342;25.944;2023-10-13T08:16:26;101102.75;;;21.10;94.54
49122;BME280;35529;44.342;25.944;2023-10-13T08:19:13;101107.53;;;21.25;92.57
49122;BME280;35529;44.342;25.944;2023-10-13T08:21:41;101109.50;;;21.35;89.84
49122;BME280;35529;44.342;25.944;2023-10-13T08:24:15;101104.53;;;21.49;89.23
49122;BME280;35529;44.342;25.944;2023-10-13T08:26:41;101103.06;;;21.63;87.76
49122;BME280;35529;44.342;25.944;2023-10-13T08:29:45;101089.66;;;21.73;87.11
49122;BME280;35529;44.342;25.944;2023-10-13T08:32:17;101094.44;;;21.93;86.49
49122;BME280;35529;44.342;25.944;2023-10-13T08:34:55;101092.72;;;22.15;85.60
49122;BME280;35529;44.342;25.944;2023-10-13T08:37:28;101094.72;;;22.30;85.46
49122;BME280;35529;44.342;25.944;2023-10-13T08:40:23;101089.72;;;22.49;81.34
49122;BME280;35529;44.342;25.944;2023-10-13T08:43:11;101093.03;;;22.61;79.33
49122;BME280;35529;44.342;25.944;2023-10-13T08:45:39;101095.84;;;22.76;78.81
49122;BME280;35529;44.342;25.944;2023-10-13T08:48:05;101096.78;;;23.03;76.45
49122;BME280;35529;44.342;25.944;2023-10-13T08:53:16;101102.84;;;23.36;72.25
49122;BME280;35529;44.342;25.944;2023-10-13T08:58:32;101095.63;;;23.93;69.75
49122;BME280;35529;44.342;25.944;2023-10-13T09:01:16;101104.31;;;23.90;67.62
49122;BME280;35529;44.342;25.944;2023-10-13T09:04:09;101105.13;;;24.16;66.78
49122;BME280;35529;44.342;25.944;2023-10-13T09:06:45;101124.66;;;24.13;64.33
49122;BME280;35529;44.342;25.944;2023-10-13T09:09:22;101120.06;;;24.08;63.33
49122;BME280;35529;44.342;25.944;2023-10-13T09:12:10;101116.00;;;24.06;64.39
49122;BME280;35529;44.342;25.944;2023-10-13T09:14:37;101116.53;;;23.92;65.02
49122;BME280;35529;44.342;25.944;2023-10-13T09:17:14;101116.25;;;24.20;63.91
49122;BME280;35529;44.342;25.944;2023-10-13T09:19:46;101125.47;;;24.29;63.57
49122;BME280;35529;44.342;25.944;2023-10-13T09:22:46;101125.44;;;24.44;63.13
49122;BME280;35529;44.342;25.944;2023-10-13T09:25:08;101117.28;;;24.75;61.58
49122;BME280;35529;44.342;25.944;2023-10-13T09:27:39;101121.53;;;25.02;60.46
49122;BME280;35529;44.342;25.944;2023-10-13T09:30:05;101129.09;;;25.10;58.81
49122;BME280;35529;44.342;25.944;2023-10-13T09:32:44;101123.22;;;24.77;58.92
49122;BME280;35529;44.342;25.944;2023-10-13T09:35:16;101123.41;;;25.02;59.99
49122;BME280;35529;44.342;25.944;2023-10-13T09:37:43;101123.59;;;25.21;59.07
49122;BME280;35529;44.342;25.944;2023-10-13T09:40:14;101124.59;;;25.40;57.65
49122;BME280;35529;44.342;25.944;2023-10-13T09:43:02;101118.75;;;25.07;56.28
49122;BME280;35529;44.342;25.944;2023-10-13T09:45:34;101117.09;;;25.17;57.09
49122;BME280;35529;44.342;25.944;2023-10-13T09:48:29;101114.38;;;25.12;57.62
49122;BME280;35529;44.342;25.944;2023-10-13T09:50:58;101119.78;;;25.17;55.86
49122;BME280;35529;44.342;25.944;2023-10-13T09:53:25;101113.19;;;25.38;55.85
49122;BME280;35529;44.342;25.944;2023-10-13T09:56:10;101108.09;;;25.71;55.62
49122;BME280;35529;44.342;25.944;2023-10-13T09:58:50;101113.69;;;25.85;54.04
49122;BME280;35529;44.342;25.944;2023-10-13T10:01:24;101102.03;;;25.80;53.62
49122;BME280;35529;44.342;25.944;2023-10-13T10:04:09;101097.91;;;25.87;53.42
49122;BME280;35529;44.342;25.944;2023-10-13T10:06:50;101098.72;;;26.22;52.84
49122;BME280;35529;44.342;25.944;2023-10-13T10:09:25;101090.53;;;26.52;52.58
49122;BME280;35529;44.342;25.944;2023-10-13T10:17:16;101075.41;;;27.27;49.53
49122;BME280;35529;44.342;25.944;2023-10-13T10:19:47;101078.91;;;27.52;49.74
49122;BME280;35529;44.342;25.944;2023-10-13T10:22:13;101084.88;;;27.73;48.53
49122;BME280;35529;44.342;25.944;2023-10-13T10:24:42;101078.50;;;27.77;47.98
49122;BME280;35529;44.342;25.944;2023-10-13T10:27:09;101081.41;;;28.00;48.26
49122;BME280;35529;44.342;25.944;2023-10-13T10:29:52;101080.97;;;28.26;47.20
49122;BME280;35529;44.342;25.944;2023-10-13T10:32:18;101090.06;;;28.49;47.16
49122;BME280;35529;44.342;25.944;2023-10-13T10:34:44;101086.28;;;28.64;46.65
49122;BME280;35529;44.342;25.944;2023-10-13T10:37:11;101090.09;;;28.63;45.42
49122;BME280;35529;44.342;25.944;2023-10-13T10:39:38;101084.41;;;28.59;44.10
49122;BME280;35529;44.342;25.944;2023-10-13T10:42:11;101084.03;;;28.66;44.98
49122;BME280;35529;44.342;25.944;2023-10-13T10:44:51;101085.06;;;28.70;45.21
49122;BME280;35529;44.342;25.944;2023-10-13T10:47:32;101087.09;;;28.65;44.42
49122;BME280;35529;44.342;25.944;2023-10-13T10:50:04;101079.66;;;28.37;43.88
49122;BME280;35529;44.342;25.944;2023-10-13T10:52:34;101082.78;;;28.17;45.06
49122;BME280;35529;44.342;25.944;2023-10-13T10:55:06;101084.75;;;27.97;45.08
49122;BME280;35529;44.342;25.944;2023-10-13T10:57:40;101077.97;;;27.95;45.42
49122;BME280;35529;44.342;25.944;2023-10-13T11:00:21;101082.47;;;27.85;44.89
49122;BME280;35529;44.342;25.944;2023-10-13T11:02:55;101080.81;;;27.70;45.25
49122;BME280;35529;44.342;25.944;2023-10-13T11:05:22;101073.50;;;27.66;45.71
49122;BME280;35529;44.342;25.944;2023-10-13T11:07:50;101077.59;;;27.49;45.42
49122;BME280;35529;44.342;25.944;2023-10-13T11:10:16;101072.63;;;27.51;45.97
49122;BME280;35529;44.342;25.944;2023-10-13T11:12:57;101076.53;;;27.64;46.09
49122;BME280;35529;44.342;25.944;2023-10-13T11:15:47;101068.19;;;27.74;46.22
49122;BME280;35529;44.342;25.944;2023-10-13T11:18:18;101070.47;;;27.86;46.08
49122;BME280;35529;44.342;25.944;2023-10-13T11:20:59;101067.91;;;27.90;45.40
49122;BME280;35529;44.342;25.944;2023-10-13T11:23:25;101066.72;;;27.96;45.55
49122;BME280;35529;44.342;25.944;2023-10-13T11:25:58;101063.66;;;28.03;44.64
49122;BME280;35529;44.342;25.944;2023-10-13T11:28:25;101074.97;;;28.10;44.54
49122;BME280;35529;44.342;25.944;2023-10-13T11:30:57;101060.94;;;28.17;44.25
49122;BME280;35529;44.342;25.944;2023-10-13T11:33:30;101058.91;;;28.08;44.17
49122;BME280;35529;44.342;25.944;2023-10-13T11:35:57;101052.56;;;27.94;43.42
49122;BME280;35529;44.342;25.944;2023-10-13T11:38:28;101057.78;;;27.76;44.18
49122;BME280;35529;44.342;25.944;2023-10-13T11:40:55;101060.44;;;27.82;44.20
49122;BME280;35529;44.342;25.944;2023-10-13T11:43:31;101064.84;;;27.77;44.23
49122;BME280;35529;44.342;25.944;2023-10-13T11:46:01;101063.53;;;27.75;44.48
49122;BME280;35529;44.342;25.944;2023-10-13T11:48:36;101060.88;;;27.70;44.38
49122;BME280;35529;44.342;25.944;2023-10-13T11:51:03;101050.50;;;27.72;44.83
49122;BME280;35529;44.342;25.944;2023-10-13T11:54:05;101054.09;;;27.67;44.72
49122;BME280;35529;44.342;25.944;2023-10-13T11:56:31;101056.03;;;27.67;44.95
49122;BME280;35529;44.342;25.944;2023-10-13T11:58:57;101055.91;;;27.58;44.42
49122;BME280;35529;44.342;25.944;2023-10-13T12:01:27;101060.31;;;27.54;44.86
49122;BME280;35529;44.342;25.944;2023-10-13T12:04:12;101063.81;;;27.40;44.84
49122;BME280;35529;44.342;25.944;2023-10-13T12:06:57;101068.28;;;27.31;45.22
49122;BME280;35529;44.342;25.944;2023-10-13T12:09:41;101079.41;;;27.16;45.22
49122;BME280;35529;44.342;25.944;2023-10-13T12:12:24;101068.94;;;27.04;45.37
49122;BME280;35529;44.342;25.944;2023-10-13T12:14:54;101065.53;;;26.93;45.58
49122;BME280;35529;44.342;25.944;2023-10-13T12:17:21;101071.06;;;26.88;45.84
49122;BME280;35529;44.342;25.944;2023-10-13T12:20:07;101060.75;;;26.85;45.91
49122;BME280;35529;44.342;25.944;2023-10-13T12:22:43;101063.53;;;26.80;45.87
49122;BME280;35529;44.342;25.944;2023-10-13T12:25:17;101064.44;;;26.70;45.91
49122;BME280;35529;44.342;25.944;2023-10-13T12:28:01;101057.72;;;26.62;46.54
49122;BME280;35529;44.342;25.944;2023-10-13T12:30:45;101061.16;;;26.49;46.81
49122;BME280;35529;44.342;25.944;2023-10-13T12:33:20;101062.94;;;26.34;47.00
49122;BME280;35529;44.342;25.944;2023-10-13T12:36:06;101072.81;;;26.25;47.58
49122;BME280;35529;44.342;25.944;2023-10-13T12:38:37;101058.97;;;26.21;47.79
49122;BME280;35529;44.342;25.944;2023-10-13T12:41:16;101073.72;;;26.20;47.61
49122;BME280;35529;44.342;25.944;2023-10-13T12:44:01;101064.66;;;26.25;48.14
49122;BME280;35529;44.342;25.944;2023-10-13T12:46:46;101070.69;;;26.22;47.78
49122;BME280;35529;44.342;25.944;2023-10-13T12:49:34;101069.94;;;26.16;47.87
49122;BME280;35529;44.342;25.944;2023-10-13T12:52:13;101066.97;;;26.13;48.25
49122;BME280;35529;44.342;25.944;2023-10-13T12:54:45;101062.66;;;26.06;48.32
49122;BME280;35529;44.342;25.944;2023-10-13T12:57:24;101068.00;;;26.17;48.47
49122;BME280;35529;44.342;25.944;2023-10-13T12:59:51;101061.94;;;26.25;48.49
49122;BME280;35529;44.342;25.944;2023-10-13T13:02:20;101067.91;;;26.27;48.40
49122;BME280;35529;44.342;25.944;2023-10-13T13:04:46;101068.47;;;26.24;48.57
49122;BME280;35529;44.342;25.944;2023-10-13T13:07:16;101067.56;;;26.09;48.88
49122;BME280;35529;44.342;25.944;2023-10-13T13:09:43;101060.56;;;25.93;49.44
49122;BME280;35529;44.342;25.944;2023-10-13T13:12:09;101065.34;;;25.77;49.71
49122;BME280;35529;44.342;25.944;2023-10-13T13:14:38;101074.16;;;25.64;50.36
49122;BME280;35529;44.342;25.944;2023-10-13T13:17:07;101075.59;;;25.56;50.74
49122;BME280;35529;44.342;25.944;2023-10-13T13:19:33;101070.69;;;25.53;50.67
49122;BME280;35529;44.342;25.944;2023-10-13T13:22:02;101072.03;;;25.55;51.40
49122;BME280;35529;44.342;25.944;2023-10-13T13:24:38;101065.13;;;25.73;51.43
49122;BME280;35529;44.342;25.944;2023-10-13T13:27:11;101065.19;;;25.98;50.83
49122;BME280;35529;44.342;25.944;2023-10-13T13:29:43;101065.53;;;26.20;50.11